createdAt,value
2023-02-12T00:01:25.724Z,6.80
2023-02-12T00:03:53.096Z,6.80
2023-02-12T00:06:20.494Z,6.80
2023-02-12T00:08:51.645Z,6.70
2023-02-12T00:11:22.728Z,6.70
2023-02-12T00:13:50.773Z,6.70
2023-02-12T00:16:22.368Z,6.80
2023-02-12T00:18:54.072Z,6.90
2023-02-12T00:21:22.749Z,6.90
2023-02-12T00:23:50.144Z,6.90
2023-02-12T00:26:20.361Z,6.80
2023-02-12T00:28:50.685Z,6.80
2023-02-12T00:31:22.531Z,6.90
2023-02-12T00:33:50.553Z,6.90
2023-02-12T00:36:22.893Z,6.90
2023-02-12T00:38:53.480Z,6.80
2023-02-12T00:41:22.019Z,6.80
2023-02-12T00:43:50.150Z,6.70
2023-02-12T00:46:17.462Z,6.80
2023-02-12T00:48:45.115Z,6.90
2023-02-12T00:51:12.311Z,6.80
2023-02-12T00:53:39.765Z,6.70
2023-02-12T00:56:07.943Z,6.70
2023-02-12T00:58:35.498Z,6.80
2023-02-12T01:01:02.600Z,6.80
2023-02-12T01:03:29.765Z,6.80
2023-02-12T01:05:59.127Z,6.80
2023-02-12T01:08:26.463Z,6.70
2023-02-12T01:11:05.731Z,6.70
2023-02-12T01:13:34.526Z,6.60
2023-02-12T01:16:02.766Z,6.60
2023-02-12T01:18:29.984Z,6.60
2023-02-12T01:20:58.954Z,6.50
2023-02-12T01:23:26.178Z,6.50
2023-02-12T01:25:53.812Z,6.50
2023-02-12T01:28:21.446Z,6.40
2023-02-12T01:30:48.722Z,6.40
2023-02-12T01:33:16.087Z,6.50
2023-02-12T01:35:43.249Z,6.50
2023-02-12T01:38:10.390Z,6.50
2023-02-12T01:40:38.621Z,6.50
2023-02-12T01:43:12.314Z,6.50
2023-02-12T01:45:50.175Z,6.40
2023-02-12T01:48:19.496Z,6.40
2023-02-12T01:50:51.473Z,6.40
2023-02-12T01:53:22.077Z,6.50
2023-02-12T01:55:54.520Z,6.40
2023-02-12T01:58:23.480Z,6.40
2023-02-12T02:00:51.099Z,6.40
2023-02-12T02:03:18.588Z,6.50
2023-02-12T02:05:54.749Z,6.50
2023-02-12T02:08:23.368Z,6.50
2023-02-12T02:10:50.919Z,6.50
2023-02-12T02:13:37.476Z,6.40
2023-02-12T02:16:26.643Z,6.50
2023-02-12T02:19:00.886Z,6.60
2023-02-12T02:22:02.709Z,6.50
2023-02-12T02:24:32.777Z,6.60
2023-02-12T02:27:28.307Z,6.50
2023-02-12T02:30:31.962Z,6.50
2023-02-12T02:33:14.020Z,6.50
2023-02-12T02:36:07.971Z,6.50
2023-02-12T02:38:57.349Z,6.50
2023-02-12T02:41:56.678Z,6.50
2023-02-12T02:44:46.313Z,6.50
2023-02-12T02:47:15.129Z,6.50
2023-02-12T02:50:02.205Z,6.50
2023-02-12T02:52:53.792Z,6.60
2023-02-12T02:55:24.431Z,6.50
2023-02-12T02:58:10.440Z,6.60
2023-02-12T03:00:49.392Z,6.50
2023-02-12T03:03:28.837Z,6.50
2023-02-12T03:06:04.024Z,6.50
2023-02-12T03:08:38.237Z,6.50
2023-02-12T03:11:17.015Z,6.60
2023-02-12T03:13:51.181Z,6.60
2023-02-12T03:16:24.315Z,6.60
2023-02-12T03:19:18.890Z,6.60
2023-02-12T03:22:06.930Z,6.60
2023-02-12T03:24:39.459Z,6.50
2023-02-12T03:27:15.073Z,6.50
2023-02-12T03:29:42.266Z,6.50
2023-02-12T03:32:21.177Z,6.50
2023-02-12T03:35:34.094Z,6.50
2023-02-12T03:38:36.150Z,6.50
2023-02-12T03:41:21.876Z,6.50
2023-02-12T03:44:26.934Z,6.50
2023-02-12T03:47:05.119Z,6.50
2023-02-12T03:50:10.291Z,6.50
2023-02-12T03:52:37.569Z,6.50
2023-02-12T03:55:06.073Z,6.60
2023-02-12T03:57:41.253Z,6.60
2023-02-12T04:00:21.166Z,6.60
2023-02-12T04:02:48.693Z,6.50
2023-02-12T04:05:26.186Z,6.60
2023-02-12T04:07:55.963Z,6.70
2023-02-12T04:10:39.146Z,6.60
2023-02-12T04:13:25.966Z,6.70
2023-02-12T04:16:18.327Z,6.60
2023-02-12T04:18:51.677Z,6.50
2023-02-12T04:22:01.335Z,6.50
2023-02-12T04:24:31.156Z,6.60
2023-02-12T04:27:32.462Z,6.60
2023-02-12T04:30:22.637Z,6.60
2023-02-12T04:32:57.365Z,6.60
2023-02-12T04:35:34.287Z,6.70
2023-02-12T04:38:19.825Z,6.60
2023-02-12T04:40:48.399Z,6.70
2023-02-12T04:43:15.684Z,6.80
2023-02-12T04:45:42.996Z,6.70
2023-02-12T04:48:10.642Z,6.60
2023-02-12T04:50:43.867Z,6.60
2023-02-12T04:53:11.422Z,6.60
2023-02-12T04:55:38.857Z,6.60
2023-02-12T04:58:06.889Z,6.50
2023-02-12T05:00:34.616Z,6.60
2023-02-12T05:03:02.066Z,6.60
2023-02-12T05:05:29.182Z,6.50
2023-02-12T05:07:56.259Z,6.50
2023-02-12T05:10:23.628Z,6.60
2023-02-12T05:12:53.891Z,6.40
2023-02-12T05:15:21.596Z,6.50
2023-02-12T05:17:48.855Z,6.40
2023-02-12T05:20:16.013Z,6.50
2023-02-12T05:22:43.200Z,6.50
2023-02-12T05:25:10.355Z,6.60
2023-02-12T05:27:37.459Z,6.60
2023-02-12T05:30:06.193Z,6.60
2023-02-12T05:32:33.356Z,6.60
2023-02-12T05:35:00.493Z,6.60
2023-02-12T05:37:27.794Z,6.70
2023-02-12T05:39:55.002Z,6.70
2023-02-12T05:42:22.177Z,6.70
2023-02-12T05:44:49.289Z,6.70
2023-02-12T05:47:16.420Z,6.60
2023-02-12T05:49:43.614Z,6.70
2023-02-12T05:52:10.709Z,6.60
2023-02-12T05:54:37.894Z,6.70
2023-02-12T05:57:06.911Z,6.80
2023-02-12T05:59:34.031Z,6.70
2023-02-12T06:02:01.131Z,6.70
2023-02-12T06:04:29.285Z,6.60
2023-02-12T06:06:57.106Z,6.60
2023-02-12T06:09:24.633Z,6.60
2023-02-12T06:11:52.424Z,6.60
2023-02-12T06:14:21.579Z,6.60
2023-02-12T06:16:51.198Z,6.70
2023-02-12T06:19:19.844Z,6.70
2023-02-12T06:21:47.716Z,6.70
2023-02-12T06:24:17.020Z,6.70
2023-02-12T06:26:44.848Z,6.60
2023-02-12T06:29:15.820Z,6.70
2023-02-12T06:31:43.372Z,6.70
2023-02-12T06:34:12.996Z,6.50
2023-02-12T06:36:44.535Z,6.60
2023-02-12T06:39:14.567Z,6.50
2023-02-12T06:41:42.165Z,6.70
2023-02-12T06:44:11.840Z,6.50
2023-02-12T06:46:38.966Z,6.60
2023-02-12T06:49:06.100Z,6.60
2023-02-12T06:51:33.353Z,6.70
2023-02-12T06:54:00.430Z,6.80
2023-02-12T06:56:27.921Z,6.80
2023-02-12T06:58:58.283Z,6.80
2023-02-12T07:01:28.727Z,6.80
2023-02-12T07:04:02.497Z,6.80
2023-02-12T07:06:32.255Z,6.80
2023-02-12T07:08:59.618Z,6.90
2023-02-12T07:11:30.662Z,6.90
2023-02-12T07:13:58.155Z,6.90
2023-02-12T07:16:26.523Z,7.00
2023-02-12T07:18:54.356Z,7.00
2023-02-12T07:21:22.030Z,7.00
2023-02-12T07:23:51.740Z,6.90
2023-02-12T07:26:21.023Z,6.80
2023-02-12T07:28:48.809Z,6.90
2023-02-12T07:31:19.890Z,6.80
2023-02-12T07:33:47.981Z,6.80
2023-02-12T07:36:18.506Z,6.90
2023-02-12T07:38:45.991Z,7.00
2023-02-12T07:41:14.385Z,7.10
2023-02-12T07:43:44.347Z,7.00
2023-02-12T07:46:37.943Z,7.00
2023-02-12T07:49:07.547Z,7.00
2023-02-12T07:51:37.086Z,7.20
2023-02-12T07:54:05.318Z,7.30
2023-02-12T07:56:37.656Z,7.40
2023-02-12T07:59:10.231Z,7.40
2023-02-12T08:01:41.719Z,7.40
2023-02-12T08:04:13.395Z,7.50
2023-02-12T08:06:44.243Z,7.70
2023-02-12T08:09:15.276Z,7.70
2023-02-12T08:11:44.550Z,7.50
2023-02-12T08:14:18.436Z,7.50
2023-02-12T08:16:48.286Z,7.50
2023-02-12T08:19:20.869Z,7.50
2023-02-12T08:21:54.772Z,7.50
2023-02-12T08:24:24.576Z,7.60
2023-02-12T08:26:52.161Z,7.70
2023-02-12T08:29:24.197Z,7.70
2023-02-12T08:32:00.121Z,7.70
2023-02-12T08:34:30.810Z,7.70
2023-02-12T08:36:59.186Z,7.60
2023-02-12T08:39:29.177Z,7.60
2023-02-12T08:41:58.915Z,7.60
2023-02-12T08:44:26.400Z,7.60
2023-02-12T08:46:55.674Z,7.70
2023-02-12T08:49:27.532Z,7.90
2023-02-12T08:51:56.905Z,7.90
2023-02-12T08:54:28.797Z,8.00
2023-02-12T08:56:58.264Z,8.00
2023-02-12T08:59:25.616Z,8.10
2023-02-12T09:01:53.563Z,8.20
2023-02-12T09:04:25.319Z,8.20
2023-02-12T09:06:53.249Z,8.20
2023-02-12T09:09:21.281Z,8.20
2023-02-12T09:11:49.519Z,8.40
2023-02-12T09:14:18.746Z,8.50
2023-02-12T09:16:46.173Z,8.50
2023-02-12T09:19:14.769Z,8.60
2023-02-12T09:21:42.424Z,8.70
2023-02-12T09:24:10.729Z,8.70
2023-02-12T09:26:38.211Z,8.60
2023-02-12T09:29:06.060Z,8.60
2023-02-12T09:31:34.274Z,8.50
2023-02-12T09:34:04.600Z,8.00
2023-02-12T09:36:33.164Z,8.10
2023-02-12T09:39:00.987Z,8.20
2023-02-12T09:41:57.706Z,8.10
2023-02-12T09:44:40.005Z,8.30
2023-02-12T09:47:44.231Z,8.40
2023-02-12T09:50:47.645Z,8.50
2023-02-12T09:53:20.110Z,8.50
2023-02-12T09:55:47.852Z,8.60
2023-02-12T09:58:38.823Z,8.80
2023-02-12T10:01:17.039Z,8.70
2023-02-12T10:03:48.484Z,8.90
2023-02-12T10:06:20.121Z,9.30
2023-02-12T10:09:24.089Z,9.50
2023-02-12T10:12:35.105Z,9.40
2023-02-12T10:15:15.543Z,9.60
2023-02-12T10:17:43.996Z,9.00
2023-02-12T10:20:46.870Z,8.90
2023-02-12T10:23:28.677Z,9.00
2023-02-12T10:26:00.354Z,9.30
2023-02-12T10:28:34.982Z,9.30
2023-02-12T10:31:13.927Z,9.50
2023-02-12T10:33:50.335Z,9.40
2023-02-12T10:36:40.716Z,9.60
2023-02-12T10:39:10.947Z,9.50
2023-02-12T10:42:01.691Z,9.60
2023-02-12T10:44:29.069Z,9.60
2023-02-12T10:46:56.654Z,9.80
2023-02-12T10:49:24.225Z,9.80
2023-02-12T10:52:22.269Z,10.20
2023-02-12T10:54:49.982Z,9.70
2023-02-12T10:57:27.283Z,9.40
2023-02-12T10:59:59.636Z,9.40
2023-02-12T11:02:33.414Z,9.40
2023-02-12T11:05:25.468Z,9.80
2023-02-12T11:07:53.003Z,10.10
2023-02-12T11:10:46.520Z,10.10
2023-02-12T11:13:28.322Z,10.30
2023-02-12T11:15:56.072Z,10.30
2023-02-12T11:18:34.631Z,10.40
2023-02-12T11:21:13.117Z,10.50
2023-02-12T11:23:43.623Z,10.30
2023-02-12T11:26:19.904Z,10.80
2023-02-12T11:29:01.211Z,10.60
2023-02-12T11:31:37.945Z,10.60
2023-02-12T11:34:15.421Z,10.70
2023-02-12T11:36:52.576Z,10.40
2023-02-12T11:39:24.869Z,10.40
2023-02-12T11:41:56.624Z,10.60
2023-02-12T11:44:34.899Z,10.60
2023-02-12T11:47:12.134Z,10.20
2023-02-12T11:49:56.133Z,10.20
2023-02-12T11:52:30.077Z,10.30
2023-02-12T11:55:08.660Z,10.10
2023-02-12T11:57:49.629Z,9.80
2023-02-12T12:00:26.153Z,9.70
2023-02-12T12:03:14.903Z,9.50
2023-02-12T12:06:01.492Z,9.60
2023-02-12T12:08:40.971Z,9.60
2023-02-12T12:11:26.999Z,9.70
2023-02-12T12:14:32.445Z,9.60
2023-02-12T12:17:33.506Z,9.70
2023-02-12T12:20:12.284Z,9.50
2023-02-12T12:23:00.492Z,9.40
2023-02-12T12:25:36.931Z,9.50
2023-02-12T12:28:30.718Z,9.30
2023-02-12T12:31:14.035Z,9.40
2023-02-12T12:34:20.821Z,9.60
2023-02-12T12:37:21.614Z,9.80
2023-02-12T12:39:57.892Z,10.00
2023-02-12T12:43:21.997Z,9.50
2023-02-12T12:46:24.403Z,9.50
2023-02-12T12:49:13.179Z,9.60
2023-02-12T12:52:20.272Z,9.60
2023-02-12T12:55:06.687Z,9.60
2023-02-12T12:57:55.012Z,9.00
2023-02-12T13:00:46.320Z,8.80
2023-02-12T13:03:59.054Z,9.20
2023-02-12T13:06:59.002Z,9.40
2023-02-12T13:09:45.741Z,9.40
2023-02-12T13:12:40.594Z,9.60
2023-02-12T13:15:37.657Z,9.00
2023-02-12T13:18:20.509Z,9.30
2023-02-12T13:21:04.206Z,9.30
2023-02-12T13:23:49.068Z,9.10
2023-02-12T13:26:30.731Z,8.90
2023-02-12T13:29:17.838Z,8.80
2023-02-12T13:32:11.943Z,8.70
2023-02-12T13:34:41.369Z,8.80
2023-02-12T13:37:19.286Z,9.00
2023-02-12T13:39:49.350Z,8.60
2023-02-12T13:42:55.276Z,8.60
2023-02-12T13:45:44.300Z,8.30
2023-02-12T13:48:44.633Z,8.40
2023-02-12T13:51:22.027Z,8.50
2023-02-12T13:54:05.399Z,8.50
2023-02-12T13:56:49.655Z,8.40
2023-02-12T13:59:32.403Z,8.50
2023-02-12T14:02:24.208Z,8.60
2023-02-12T14:05:21.331Z,8.80
2023-02-12T14:07:53.930Z,8.90
2023-02-12T14:10:29.110Z,9.00
2023-02-12T14:13:22.786Z,8.90
2023-02-12T14:15:54.074Z,8.80
2023-02-12T14:18:33.275Z,8.90
2023-02-12T14:21:12.371Z,8.90
2023-02-12T14:23:42.301Z,8.80
2023-02-12T14:26:20.889Z,8.90
2023-02-12T14:28:52.377Z,8.90
2023-02-12T14:31:23.297Z,8.90
2023-02-12T14:34:02.945Z,8.70
2023-02-12T14:36:33.363Z,8.90
2023-02-12T14:39:24.832Z,9.00
2023-02-12T14:42:00.401Z,9.00
2023-02-12T14:44:29.033Z,9.00
2023-02-12T14:47:31.385Z,9.10
2023-02-12T14:50:19.023Z,9.00
2023-02-12T14:52:54.687Z,9.10
2023-02-12T14:55:34.428Z,9.00
2023-02-12T14:58:10.944Z,9.10
2023-02-12T15:00:46.023Z,9.00
2023-02-12T15:03:13.181Z,9.00
2023-02-12T15:05:43.922Z,9.10
2023-02-12T15:08:36.383Z,9.10
2023-02-12T15:11:34.245Z,9.00
2023-02-12T15:14:08.689Z,8.90
2023-02-12T15:17:19.672Z,8.90
2023-02-12T15:20:08.196Z,9.00
2023-02-12T15:22:43.256Z,8.80
2023-02-12T15:25:23.831Z,8.60
2023-02-12T15:28:26.645Z,8.50
2023-02-12T15:30:56.635Z,8.50
2023-02-12T15:33:30.274Z,8.40
2023-02-12T15:35:59.013Z,8.30
2023-02-12T15:38:41.509Z,8.40
2023-02-12T15:41:25.707Z,8.40
2023-02-12T15:43:53.161Z,8.50
2023-02-12T15:46:20.487Z,8.50
2023-02-12T15:48:47.738Z,8.50
2023-02-12T15:51:38.993Z,8.20
2023-02-12T15:54:07.701Z,8.30
2023-02-12T15:56:36.442Z,8.30
2023-02-12T15:59:04.376Z,8.40
2023-02-12T16:01:35.217Z,8.50
2023-02-12T16:04:08.117Z,8.50
2023-02-12T16:06:39.314Z,8.50
2023-02-12T16:09:28.847Z,8.50
2023-02-12T16:11:59.304Z,8.50
2023-02-12T16:14:44.689Z,8.50
2023-02-12T16:17:33.523Z,8.40
2023-02-12T16:20:22.023Z,8.20
2023-02-12T16:22:52.154Z,8.20
2023-02-12T16:25:32.222Z,8.30
2023-02-12T16:28:04.355Z,8.30
2023-02-12T16:30:42.938Z,8.40
2023-02-12T16:33:35.220Z,8.30
2023-02-12T16:36:07.600Z,8.30
2023-02-12T16:38:55.356Z,8.10
2023-02-12T16:41:34.338Z,8.10
2023-02-12T16:44:01.626Z,8.20
2023-02-12T16:46:35.250Z,8.20
2023-02-12T16:49:03.388Z,8.20
2023-02-12T16:51:37.962Z,8.20
2023-02-12T16:54:26.139Z,8.20
2023-02-12T16:56:53.690Z,8.10
2023-02-12T16:59:21.023Z,8.10
2023-02-12T17:02:06.557Z,8.10
2023-02-12T17:04:33.896Z,8.00
2023-02-12T17:07:01.121Z,7.70
2023-02-12T17:09:30.253Z,7.80
2023-02-12T17:11:58.191Z,7.80
2023-02-12T17:14:25.465Z,7.80
2023-02-12T17:16:52.704Z,7.90
2023-02-12T17:19:20.232Z,7.80
2023-02-12T17:21:49.495Z,7.90
2023-02-12T17:24:27.140Z,7.90
2023-02-12T17:26:55.548Z,7.90
2023-02-12T17:29:25.186Z,7.90
2023-02-12T17:31:54.062Z,8.00
2023-02-12T17:34:22.683Z,7.90
2023-02-12T17:36:50.271Z,7.90
2023-02-12T17:39:19.436Z,7.90
2023-02-12T17:41:48.142Z,7.80
2023-02-12T17:44:16.323Z,7.70
2023-02-12T17:46:43.884Z,7.80
2023-02-12T17:49:11.220Z,7.80
2023-02-12T17:51:38.792Z,7.80
2023-02-12T17:54:06.198Z,7.80
2023-02-12T17:56:33.599Z,7.70
2023-02-12T17:59:01.916Z,7.80
2023-02-12T18:01:29.430Z,7.80
2023-02-12T18:03:58.964Z,7.80
2023-02-12T18:06:29.430Z,7.70
2023-02-12T18:08:58.059Z,7.70
2023-02-12T18:11:25.609Z,7.80
2023-02-12T18:13:55.914Z,7.90
2023-02-12T18:16:26.262Z,8.00
2023-02-12T18:18:54.094Z,8.00
2023-02-12T18:21:24.273Z,8.00
2023-02-12T18:23:54.056Z,8.00
2023-02-12T18:26:22.791Z,8.00
2023-02-12T18:28:59.803Z,7.90
2023-02-12T18:31:30.682Z,7.90
2023-02-12T18:33:58.102Z,7.80
2023-02-12T18:36:25.373Z,7.70
2023-02-12T18:38:52.795Z,7.60
2023-02-12T18:41:26.865Z,7.70
2023-02-12T18:43:55.210Z,7.50
2023-02-12T18:46:28.900Z,7.50
2023-02-12T18:48:56.769Z,7.50
2023-02-12T18:51:29.529Z,7.50
2023-02-12T18:54:01.518Z,7.60
2023-02-12T18:56:31.278Z,7.60
2023-02-12T18:59:00.738Z,7.60
2023-02-12T19:01:29.087Z,7.50
2023-02-12T19:04:00.477Z,7.50
2023-02-12T19:06:32.726Z,7.60
2023-02-12T19:09:04.121Z,7.60
2023-02-12T19:11:31.928Z,7.60
2023-02-12T19:13:59.456Z,7.50
2023-02-12T19:16:27.801Z,7.60
2023-02-12T19:18:58.846Z,7.70
2023-02-12T19:21:26.470Z,7.70
2023-02-12T19:24:00.741Z,7.70
2023-02-12T19:26:30.276Z,7.70
2023-02-12T19:28:58.597Z,7.70
2023-02-12T19:31:34.273Z,7.80
2023-02-12T19:34:06.160Z,7.80
2023-02-12T19:36:36.542Z,7.70
2023-02-12T19:39:06.186Z,7.60
2023-02-12T19:41:40.996Z,7.50
2023-02-12T19:44:21.431Z,7.30
2023-02-12T19:46:50.064Z,7.20
2023-02-12T19:49:26.330Z,7.20
2023-02-12T19:51:54.593Z,7.10
2023-02-12T19:54:23.788Z,7.10
2023-02-12T19:56:52.966Z,7.00
2023-02-12T19:59:22.949Z,6.90
2023-02-12T20:01:50.798Z,7.10
2023-02-12T20:04:21.427Z,7.20
2023-02-12T20:06:51.076Z,7.20
2023-02-12T20:09:20.447Z,7.20
2023-02-12T20:11:47.610Z,7.30
2023-02-12T20:14:15.538Z,7.40
2023-02-12T20:16:46.766Z,7.40
2023-02-12T20:19:26.755Z,7.40
2023-02-12T20:21:56.078Z,7.40
2023-02-12T20:24:28.617Z,7.30
2023-02-12T20:26:57.750Z,7.20
2023-02-12T20:29:25.181Z,7.20
2023-02-12T20:31:53.177Z,7.10
2023-02-12T20:34:22.227Z,7.10
2023-02-12T20:36:49.752Z,7.20
2023-02-12T20:39:20.053Z,7.30
2023-02-12T20:41:59.696Z,7.30
2023-02-12T20:44:27.355Z,7.30
2023-02-12T20:46:57.200Z,7.40
2023-02-12T20:49:25.025Z,7.40
2023-02-12T20:51:52.727Z,7.40
2023-02-12T20:54:19.998Z,7.30
2023-02-12T20:56:50.447Z,7.30
2023-02-12T20:59:18.771Z,7.30
2023-02-12T21:01:47.017Z,7.40
2023-02-12T21:04:18.131Z,7.30
2023-02-12T21:06:47.389Z,7.20
2023-02-12T21:09:15.339Z,7.20
2023-02-12T21:11:45.615Z,7.10
2023-02-12T21:14:23.563Z,7.10
2023-02-12T21:16:55.833Z,7.20
2023-02-12T21:19:24.294Z,7.10
2023-02-12T21:21:52.287Z,7.20
2023-02-12T21:24:23.533Z,7.20
2023-02-12T21:26:52.664Z,7.30
2023-02-12T21:29:21.624Z,7.40
2023-02-12T21:31:50.478Z,7.30
2023-02-12T21:34:23.254Z,7.10
2023-02-12T21:36:53.656Z,7.00
2023-02-12T21:39:26.544Z,7.20
2023-02-12T21:42:04.034Z,7.20
2023-02-12T21:44:35.511Z,7.30
2023-02-12T21:47:02.847Z,7.10
2023-02-12T21:49:30.100Z,7.10
2023-02-12T21:52:05.903Z,7.00
2023-02-12T21:54:33.750Z,7.00
2023-02-12T21:57:01.269Z,7.00
2023-02-12T21:59:30.805Z,7.00
2023-02-12T22:02:00.809Z,6.90
2023-02-12T22:04:28.453Z,6.90
2023-02-12T22:06:56.730Z,7.00
2023-02-12T22:09:24.390Z,7.10
2023-02-12T22:11:52.548Z,7.20
2023-02-12T22:14:21.743Z,6.90
2023-02-12T22:16:49.596Z,6.90
2023-02-12T22:19:16.783Z,6.80
2023-02-12T22:21:44.774Z,6.70
2023-02-12T22:24:15.443Z,6.90
2023-02-12T22:26:43.963Z,7.00
2023-02-12T22:29:15.679Z,7.10
2023-02-12T22:31:45.258Z,7.20
2023-02-12T22:34:16.989Z,7.20
2023-02-12T22:36:46.791Z,7.20
2023-02-12T22:39:15.238Z,7.20
2023-02-12T22:41:42.901Z,7.30
2023-02-12T22:44:12.615Z,7.40
2023-02-12T22:46:41.002Z,7.40
2023-02-12T22:49:08.254Z,7.40
2023-02-12T22:51:36.953Z,7.40
2023-02-12T22:54:06.202Z,7.40
2023-02-12T22:56:33.997Z,7.40
2023-02-12T22:59:02.184Z,7.40
2023-02-12T23:01:31.093Z,7.50
2023-02-12T23:03:58.438Z,7.30
2023-02-12T23:06:29.733Z,7.20
2023-02-12T23:09:02.795Z,7.00
2023-02-12T23:11:32.521Z,6.90
2023-02-12T23:14:00.349Z,7.00
2023-02-12T23:16:28.015Z,7.10
2023-02-12T23:19:00.841Z,7.10
2023-02-12T23:21:30.454Z,7.10
2023-02-12T23:24:01.693Z,7.20
2023-02-12T23:26:30.063Z,7.10
2023-02-12T23:28:58.278Z,7.00
2023-02-12T23:31:26.152Z,7.00
2023-02-12T23:33:53.414Z,7.00
2023-02-12T23:36:20.742Z,6.90
2023-02-12T23:38:47.876Z,6.90
2023-02-12T23:41:15.004Z,6.90
2023-02-12T23:43:42.190Z,7.00
2023-02-12T23:46:09.711Z,7.10
2023-02-12T23:48:37.144Z,6.90
2023-02-12T23:51:04.861Z,6.90
2023-02-12T23:53:31.985Z,7.00
2023-02-12T23:55:59.174Z,7.10
2023-02-12T23:58:26.332Z,7.20
